createdAt,value
2023-05-01T00:00:06.376Z,50.47
2023-05-01T00:02:34.759Z,50.94
2023-05-01T00:05:03.251Z,51.78
2023-05-01T00:07:31.960Z,52.45
2023-05-01T00:10:00.377Z,52.61
2023-05-01T00:12:28.784Z,54.37
2023-05-01T00:14:58.424Z,53.43
2023-05-01T00:17:27.190Z,54.20
2023-05-01T00:19:55.838Z,54.01
2023-05-01T00:22:24.373Z,54.54
2023-05-01T00:24:52.665Z,54.83
2023-05-01T00:27:20.978Z,55.22
2023-05-01T00:29:49.548Z,55.54
2023-05-01T00:32:19.678Z,56.93
2023-05-01T00:34:48.499Z,58.10
2023-05-01T00:37:17.540Z,55.54
2023-05-01T00:39:45.863Z,54.90
2023-05-01T00:42:14.114Z,53.88
2023-05-01T00:44:42.423Z,54.12
2023-05-01T00:47:10.653Z,55.09
2023-05-01T00:49:42.850Z,53.84
2023-05-01T00:52:11.412Z,54.27
2023-05-01T00:54:40.738Z,53.55
2023-05-01T00:57:09.566Z,52.76
2023-05-01T00:59:39.396Z,53.15
2023-05-01T01:02:07.826Z,53.60
2023-05-01T01:04:36.077Z,56.47
2023-05-01T01:07:11.578Z,56.04
2023-05-01T01:09:45.291Z,55.78
2023-05-01T01:12:20.465Z,54.59
2023-05-01T01:14:51.990Z,55.88
2023-05-01T01:17:29.725Z,55.97
2023-05-01T01:20:26.232Z,56.52
2023-05-01T01:23:12.369Z,57.17
2023-05-01T01:26:01.269Z,58.45
2023-05-01T01:28:40.899Z,59.61
2023-05-01T01:31:15.621Z,59.24
2023-05-01T01:34:07.725Z,62.31
2023-05-01T01:36:41.462Z,62.01
2023-05-01T01:39:12.986Z,61.82
2023-05-01T01:41:42.487Z,60.62
2023-05-01T01:44:14.506Z,59.90
2023-05-01T01:46:44.003Z,58.96
2023-05-01T01:49:20.260Z,58.42
2023-05-01T01:51:50.057Z,59.15
2023-05-01T01:54:21.086Z,57.98
2023-05-01T01:56:50.165Z,58.40
2023-05-01T01:59:20.121Z,58.99
2023-05-01T02:01:49.031Z,56.56
2023-05-01T02:04:19.407Z,56.36
2023-05-01T02:06:48.502Z,56.30
2023-05-01T02:09:18.049Z,58.01
2023-05-01T02:11:48.164Z,59.61
2023-05-01T02:14:17.482Z,58.05
2023-05-01T02:16:46.254Z,58.42
2023-05-01T02:19:15.939Z,58.31
2023-05-01T02:21:46.721Z,59.04
2023-05-01T02:24:15.347Z,59.43
2023-05-01T02:26:45.546Z,61.36
2023-05-01T02:29:13.826Z,62.15
2023-05-01T02:31:42.102Z,61.05
2023-05-01T02:34:10.513Z,64.08
2023-05-01T02:36:39.000Z,60.48
2023-05-01T02:39:08.610Z,62.41
2023-05-01T02:41:38.410Z,61.89
2023-05-01T02:44:08.741Z,61.35
2023-05-01T02:46:38.169Z,61.18
2023-05-01T02:49:07.035Z,60.27
2023-05-01T02:51:35.630Z,60.20
2023-05-01T02:54:04.294Z,60.24
2023-05-01T02:56:33.983Z,59.77
2023-05-01T02:59:02.194Z,62.07
2023-05-01T03:01:30.442Z,63.13
2023-05-01T03:03:58.863Z,63.53
2023-05-01T03:06:29.306Z,62.93
2023-05-01T03:08:57.647Z,63.02
2023-05-01T03:11:25.894Z,62.25
2023-05-01T03:13:55.494Z,65.30
2023-05-01T03:16:23.793Z,67.62
2023-05-01T03:18:52.064Z,67.24
2023-05-01T03:21:20.616Z,69.22
2023-05-01T03:23:49.144Z,69.27
2023-05-01T03:26:17.341Z,66.82
2023-05-01T03:28:45.811Z,69.87
2023-05-01T03:31:15.419Z,67.62
2023-05-01T03:33:43.702Z,67.32
2023-05-01T03:36:12.131Z,70.56
2023-05-01T03:38:40.387Z,64.28
2023-05-01T03:41:08.935Z,62.20
2023-05-01T03:43:37.302Z,64.02
2023-05-01T03:46:05.607Z,64.95
2023-05-01T03:48:35.331Z,62.92
2023-05-01T03:51:03.589Z,62.09
2023-05-01T03:53:32.592Z,64.66
2023-05-01T03:56:00.879Z,64.55
2023-05-01T03:58:29.184Z,66.38
2023-05-01T04:01:00.860Z,62.86
2023-05-01T04:03:29.632Z,62.37
2023-05-01T04:05:59.536Z,62.66
2023-05-01T04:08:27.937Z,62.63
2023-05-01T04:10:56.274Z,62.10
2023-05-01T04:13:24.564Z,63.30
2023-05-01T04:15:55.280Z,60.92
2023-05-01T04:18:23.611Z,60.21
2023-05-01T04:20:52.307Z,58.90
2023-05-01T04:23:23.188Z,58.63
2023-05-01T04:25:52.984Z,58.94
2023-05-01T04:28:21.490Z,59.86
2023-05-01T04:30:50.415Z,58.55
2023-05-01T04:33:18.730Z,57.97
2023-05-01T04:35:47.080Z,56.00
2023-05-01T04:38:15.356Z,53.53
2023-05-01T04:40:45.048Z,54.70
2023-05-01T04:43:13.273Z,51.98
2023-05-01T04:45:41.656Z,50.49
2023-05-01T04:48:09.921Z,49.05
2023-05-01T04:50:38.465Z,50.69
2023-05-01T04:53:06.763Z,49.35
2023-05-01T04:55:35.141Z,48.10
2023-05-01T04:58:04.949Z,48.31
2023-05-01T05:00:33.648Z,49.16
2023-05-01T05:03:01.995Z,48.82
2023-05-01T05:05:30.446Z,49.97
2023-05-01T05:07:59.223Z,51.35
2023-05-01T05:10:27.479Z,51.26
2023-05-01T05:12:55.774Z,50.15
2023-05-01T05:15:25.516Z,51.92
2023-05-01T05:17:56.363Z,52.86
2023-05-01T05:20:24.883Z,51.42
2023-05-01T05:22:53.117Z,48.79
2023-05-01T05:25:21.539Z,47.89
2023-05-01T05:27:49.815Z,48.36
2023-05-01T05:30:18.181Z,47.15
2023-05-01T05:32:48.858Z,46.65
2023-05-01T05:35:17.231Z,49.07
2023-05-01T05:37:46.207Z,48.84
2023-05-01T05:40:14.882Z,51.24
2023-05-01T05:42:43.119Z,49.15
2023-05-01T05:45:11.843Z,47.39
2023-05-01T05:47:40.918Z,46.97
2023-05-01T05:50:11.477Z,47.43
2023-05-01T05:52:39.732Z,48.60
2023-05-01T05:55:08.741Z,47.21
2023-05-01T05:57:37.816Z,47.05
2023-05-01T06:00:07.314Z,49.32
2023-05-01T06:02:35.613Z,50.88
2023-05-01T06:05:04.078Z,50.93
2023-05-01T06:07:33.707Z,48.57
2023-05-01T06:10:05.303Z,50.43
2023-05-01T06:12:35.736Z,48.13
2023-05-01T06:15:06.701Z,49.59
2023-05-01T06:17:36.113Z,48.70
2023-05-01T06:20:06.377Z,50.00
2023-05-01T06:22:35.982Z,50.37
2023-05-01T06:25:04.296Z,47.86
2023-05-01T06:27:32.497Z,48.20
2023-05-01T06:30:00.760Z,50.40
2023-05-01T06:32:29.049Z,50.21
2023-05-01T06:34:57.462Z,51.81
2023-05-01T06:37:25.804Z,53.80
2023-05-01T06:39:56.000Z,51.06
2023-05-01T06:42:24.516Z,52.98
2023-05-01T06:44:52.768Z,48.64
2023-05-01T06:47:21.870Z,51.96
2023-05-01T06:49:50.288Z,49.26
2023-05-01T06:52:18.570Z,49.96
2023-05-01T06:54:46.935Z,48.61
2023-05-01T06:57:16.669Z,49.01
2023-05-01T06:59:45.253Z,48.40
2023-05-01T07:02:13.585Z,44.05
2023-05-01T07:04:41.918Z,42.57
2023-05-01T07:07:10.163Z,44.97
2023-05-01T07:09:38.809Z,46.43
2023-05-01T07:12:07.250Z,43.62
2023-05-01T07:14:37.189Z,45.26
2023-05-01T07:17:05.880Z,44.12
2023-05-01T07:19:34.144Z,41.48
2023-05-01T07:22:03.258Z,44.13
2023-05-01T07:24:31.508Z,43.10
2023-05-01T07:26:59.981Z,40.76
2023-05-01T07:29:28.228Z,40.89
2023-05-01T07:31:58.425Z,41.32
2023-05-01T07:34:26.740Z,41.13
2023-05-01T07:36:55.215Z,42.70
2023-05-01T07:39:23.460Z,40.81
2023-05-01T07:41:51.720Z,40.42
2023-05-01T07:44:19.977Z,38.93
2023-05-01T07:46:48.213Z,38.03
2023-05-01T07:49:17.815Z,37.89
2023-05-01T07:51:46.105Z,40.67
2023-05-01T07:54:16.163Z,40.79
2023-05-01T07:56:44.452Z,38.82
2023-05-01T07:59:12.703Z,37.89
2023-05-01T08:01:41.294Z,38.13
2023-05-01T08:04:09.618Z,39.80
2023-05-01T08:06:39.761Z,37.41
2023-05-01T08:09:11.065Z,37.82
2023-05-01T08:11:39.573Z,36.01
2023-05-01T08:14:08.343Z,36.53
2023-05-01T08:16:36.962Z,36.71
2023-05-01T08:19:05.729Z,39.16
2023-05-01T08:21:34.021Z,38.78
2023-05-01T08:24:03.859Z,38.93
2023-05-01T08:26:32.176Z,40.24
2023-05-01T08:29:00.473Z,39.48
2023-05-01T08:31:28.809Z,38.23
2023-05-01T08:33:57.229Z,38.21
2023-05-01T08:36:25.440Z,39.25
2023-05-01T08:38:54.128Z,38.15
2023-05-01T08:41:23.889Z,37.96
2023-05-01T08:43:52.193Z,37.99
2023-05-01T08:46:27.821Z,36.94
2023-05-01T08:48:58.634Z,36.11
2023-05-01T08:51:27.197Z,39.23
2023-05-01T08:53:56.753Z,41.35
2023-05-01T08:56:26.598Z,40.29
2023-05-01T08:58:55.318Z,39.33
2023-05-01T09:01:23.642Z,42.38
2023-05-01T09:03:52.369Z,43.20
2023-05-01T09:06:21.575Z,41.49
2023-05-01T09:08:49.882Z,41.63
2023-05-01T09:11:18.233Z,40.16
2023-05-01T09:13:48.220Z,40.03
2023-05-01T09:16:16.620Z,39.60
2023-05-01T09:18:45.017Z,40.48
2023-05-01T09:21:13.373Z,39.20
2023-05-01T09:23:41.677Z,41.99
2023-05-01T09:26:09.895Z,42.28
2023-05-01T09:28:42.709Z,40.19
2023-05-01T09:31:26.533Z,41.21
2023-05-01T09:33:55.836Z,40.82
2023-05-01T09:36:25.003Z,41.38
2023-05-01T09:38:53.428Z,42.86
2023-05-01T09:41:24.588Z,41.75
2023-05-01T09:43:53.829Z,41.42
2023-05-01T09:46:24.659Z,43.09
2023-05-01T09:48:57.109Z,43.06
2023-05-01T09:51:27.836Z,42.61
2023-05-01T09:53:57.296Z,44.16
2023-05-01T09:56:27.176Z,46.04
2023-05-01T09:58:56.585Z,42.69
2023-05-01T10:01:44.335Z,44.32
2023-05-01T10:04:13.227Z,46.91
2023-05-01T10:06:42.296Z,46.00
2023-05-01T10:09:16.681Z,49.44
2023-05-01T10:11:52.205Z,51.35
2023-05-01T10:14:21.281Z,49.88
2023-05-01T10:16:52.905Z,49.10
2023-05-01T10:19:22.243Z,47.79
2023-05-01T10:21:50.702Z,49.75
2023-05-01T10:24:19.039Z,59.63
2023-05-01T10:26:49.680Z,65.27
2023-05-01T10:29:18.010Z,66.17
2023-05-01T10:34:19.461Z,75.42
2023-05-01T10:36:54.877Z,77.39
2023-05-01T10:39:41.020Z,76.57
2023-05-01T10:42:14.351Z,88.04
2023-05-01T10:44:43.658Z,84.52
2023-05-01T10:47:45.190Z,93.59
2023-05-01T10:50:16.163Z,96.48
2023-05-01T10:53:18.863Z,99.78
2023-05-01T10:55:49.206Z,100.00
2023-05-01T10:58:51.876Z,95.08
2023-05-01T11:01:31.198Z,91.70
2023-05-01T11:04:00.188Z,92.04
2023-05-01T11:06:30.100Z,97.13
2023-05-01T11:08:58.568Z,98.00
2023-05-01T11:11:51.654Z,91.55
2023-05-01T11:14:19.974Z,91.77
2023-05-01T11:16:49.412Z,93.37
2023-05-01T11:19:47.629Z,97.21
2023-05-01T11:22:17.881Z,95.58
2023-05-01T11:24:46.236Z,96.20
2023-05-01T11:27:15.869Z,100.00
2023-05-01T11:29:46.678Z,100.00
2023-05-01T11:32:19.198Z,100.00
2023-05-01T11:34:48.124Z,100.00
2023-05-01T11:37:17.781Z,100.00
2023-05-01T11:39:50.498Z,100.00
2023-05-01T11:42:22.389Z,100.00
2023-05-01T11:45:11.900Z,100.00
2023-05-01T11:47:40.598Z,100.00
2023-05-01T11:50:11.012Z,97.71
2023-05-01T11:52:49.408Z,100.00
2023-05-01T11:55:17.817Z,96.54
2023-05-01T11:57:47.308Z,100.00
2023-05-01T12:00:17.145Z,100.00
2023-05-01T12:02:58.358Z,100.00
2023-05-01T12:05:27.624Z,100.00
2023-05-01T12:08:12.627Z,100.00
2023-05-01T12:10:43.117Z,100.00
2023-05-01T12:13:11.673Z,100.00
2023-05-01T12:15:42.588Z,100.00
2023-05-01T12:18:11.032Z,100.00
2023-05-01T12:20:40.397Z,100.00
2023-05-01T12:23:12.182Z,100.00
2023-05-01T12:25:41.447Z,100.00
2023-05-01T12:28:11.556Z,98.05
2023-05-01T12:30:41.423Z,100.00
2023-05-01T12:33:11.607Z,100.00
2023-05-01T12:35:40.685Z,97.39
2023-05-01T12:38:14.363Z,95.57
2023-05-01T12:40:52.645Z,100.00
2023-05-01T12:43:21.606Z,100.00
2023-05-01T12:45:53.631Z,100.00
2023-05-01T12:48:22.211Z,100.00
2023-05-01T12:50:54.764Z,100.00
2023-05-01T12:53:25.414Z,91.28
2023-05-01T12:55:55.285Z,100.00
2023-05-01T12:58:23.960Z,83.30
2023-05-01T13:00:53.558Z,76.10
2023-05-01T13:03:25.072Z,73.01
2023-05-01T13:05:55.157Z,75.89
2023-05-01T13:08:29.275Z,78.18
2023-05-01T13:10:58.401Z,74.99
2023-05-01T13:13:31.727Z,69.80
2023-05-01T13:16:08.855Z,69.05
2023-05-01T13:18:44.652Z,69.69
2023-05-01T13:21:15.717Z,68.67
2023-05-01T13:23:53.563Z,68.87
2023-05-01T13:26:26.958Z,58.35
2023-05-01T13:28:55.461Z,55.82
2023-05-01T13:31:24.024Z,65.41
2023-05-01T13:33:53.556Z,58.94
2023-05-01T13:36:26.956Z,66.26
2023-05-01T13:38:57.657Z,56.46
2023-05-01T13:41:27.937Z,57.02
2023-05-01T13:43:57.580Z,53.52
2023-05-01T13:46:27.393Z,70.15
2023-05-01T13:48:56.323Z,62.16
2023-05-01T13:51:26.429Z,59.76
2023-05-01T13:53:57.425Z,54.89
2023-05-01T13:56:26.143Z,55.65
2023-05-01T13:58:54.476Z,61.74
2023-05-01T14:01:23.988Z,62.17
2023-05-01T14:03:52.609Z,63.27
2023-05-01T14:06:22.114Z,57.87
2023-05-01T14:08:52.573Z,61.20
2023-05-01T14:11:22.018Z,60.88
2023-05-01T14:13:51.611Z,55.27
2023-05-01T14:16:24.406Z,59.70
2023-05-01T14:18:56.796Z,60.21
2023-05-01T14:21:27.363Z,53.65
2023-05-01T14:23:56.699Z,58.40
2023-05-01T14:26:26.754Z,62.58
2023-05-01T14:28:55.650Z,57.05
2023-05-01T14:31:28.482Z,62.31
2023-05-01T14:33:59.858Z,55.61
2023-05-01T14:36:31.093Z,56.96
2023-05-01T14:39:00.086Z,63.57
2023-05-01T14:41:30.431Z,58.67
2023-05-01T14:43:58.748Z,56.66
2023-05-01T14:46:30.841Z,59.57
2023-05-01T14:48:59.784Z,62.45
2023-05-01T14:51:28.665Z,68.44
2023-05-01T14:53:56.978Z,66.52
2023-05-01T14:56:25.591Z,63.56
2023-05-01T14:58:55.248Z,64.60
2023-05-01T15:01:23.616Z,65.67
2023-05-01T15:03:53.206Z,61.61
2023-05-01T15:06:21.648Z,69.96
2023-05-01T15:08:49.937Z,63.21
2023-05-01T15:11:18.725Z,55.76
2023-05-01T15:13:47.235Z,54.43
2023-05-01T15:16:17.075Z,55.72
2023-05-01T15:18:45.456Z,55.00
2023-05-01T15:21:13.665Z,54.39
2023-05-01T15:23:45.150Z,54.05
2023-05-01T15:26:13.899Z,56.68
2023-05-01T15:28:42.158Z,58.52
2023-05-01T15:31:10.382Z,56.41
2023-05-01T15:33:40.144Z,58.55
2023-05-01T15:36:08.722Z,61.90
2023-05-01T15:38:36.943Z,57.09
2023-05-01T15:41:05.528Z,58.15
2023-05-01T15:43:33.766Z,55.55
2023-05-01T15:46:02.003Z,61.63
2023-05-01T15:48:30.281Z,67.83
2023-05-01T15:50:59.933Z,67.45
2023-05-01T15:53:28.314Z,71.04
2023-05-01T15:55:58.475Z,69.96
2023-05-01T15:58:26.725Z,67.83
2023-05-01T16:00:55.025Z,71.80
2023-05-01T16:03:23.459Z,71.50
2023-05-01T16:05:52.273Z,69.66
2023-05-01T16:08:21.853Z,74.14
2023-05-01T16:10:50.223Z,72.27
2023-05-01T16:13:18.489Z,70.50
2023-05-01T16:15:47.022Z,67.10
2023-05-01T16:18:20.116Z,63.21
2023-05-01T16:20:48.416Z,66.76
2023-05-01T16:23:16.686Z,62.25
2023-05-01T16:25:46.319Z,58.52
2023-05-01T16:28:15.671Z,58.91
2023-05-01T16:30:44.141Z,58.50
2023-05-01T16:33:18.864Z,63.00
2023-05-01T16:35:48.613Z,59.38
2023-05-01T16:38:17.088Z,62.00
2023-05-01T16:40:48.076Z,60.12
2023-05-01T16:43:16.910Z,60.33
2023-05-01T16:45:46.698Z,60.98
2023-05-01T16:48:24.856Z,54.51
2023-05-01T16:50:53.146Z,56.35
2023-05-01T16:53:21.437Z,54.26
2023-05-01T16:55:51.025Z,59.51
2023-05-01T16:58:19.299Z,59.00
2023-05-01T17:00:47.499Z,59.97
2023-05-01T17:03:16.160Z,62.92
2023-05-01T17:05:44.474Z,59.81
2023-05-01T17:08:12.805Z,60.83
2023-05-01T17:10:41.079Z,66.36
2023-05-01T17:13:10.965Z,64.36
2023-05-01T17:15:39.208Z,66.17
2023-05-01T17:18:07.537Z,66.99
2023-05-01T17:20:35.881Z,69.28
2023-05-01T17:23:04.357Z,65.84
2023-05-01T17:25:32.628Z,64.73
2023-05-01T17:28:00.865Z,69.41
2023-05-01T17:30:30.486Z,74.82
2023-05-01T17:32:58.873Z,83.51
2023-05-01T17:35:27.362Z,93.18
2023-05-01T17:37:56.299Z,97.55
2023-05-01T17:40:24.618Z,100.00
2023-05-01T17:42:52.908Z,95.34
2023-05-01T17:45:21.286Z,100.00
2023-05-01T17:47:52.809Z,100.00
2023-05-01T17:50:21.424Z,100.00
2023-05-01T17:52:49.757Z,100.00
2023-05-01T17:55:18.602Z,100.00
2023-05-01T17:57:47.489Z,100.00
2023-05-01T18:00:16.567Z,100.00
2023-05-01T18:02:46.479Z,100.00
2023-05-01T18:05:16.422Z,100.00
2023-05-01T18:07:44.725Z,100.00
2023-05-01T18:10:13.179Z,100.00
2023-05-01T18:12:41.455Z,100.00
2023-05-01T18:15:10.681Z,100.00
2023-05-01T18:17:39.000Z,100.00
2023-05-01T18:20:08.594Z,100.00
2023-05-01T18:22:38.169Z,100.00
2023-05-01T18:25:07.459Z,100.00
2023-05-01T18:27:37.443Z,100.00
2023-05-01T18:30:06.362Z,100.00
2023-05-01T18:32:46.967Z,100.00
2023-05-01T18:35:17.062Z,100.00
2023-05-01T18:37:47.066Z,100.00
2023-05-01T18:40:15.395Z,100.00
2023-05-01T18:42:43.904Z,100.00
2023-05-01T18:45:12.260Z,100.00
2023-05-01T18:47:40.745Z,100.00
2023-05-01T18:50:11.296Z,100.00
2023-05-01T18:52:39.656Z,100.00
2023-05-01T18:55:11.358Z,100.00
2023-05-01T18:57:41.771Z,100.00
2023-05-01T19:00:11.101Z,100.00
2023-05-01T19:02:39.437Z,100.00
2023-05-01T19:05:08.829Z,100.00
2023-05-01T19:07:37.435Z,100.00
2023-05-01T19:10:06.321Z,100.00
2023-05-01T19:12:35.967Z,100.00
2023-05-01T19:15:04.356Z,100.00
2023-05-01T19:17:33.918Z,100.00
2023-05-01T19:20:04.652Z,100.00
2023-05-01T19:22:32.977Z,100.00
2023-05-01T19:25:01.232Z,100.00
2023-05-01T19:27:29.547Z,100.00
2023-05-01T19:30:01.204Z,100.00
2023-05-01T19:32:29.920Z,100.00
2023-05-01T19:34:58.232Z,100.00
2023-05-01T19:37:27.593Z,100.00
2023-05-01T19:39:56.196Z,100.00
2023-05-01T19:42:24.807Z,100.00
2023-05-01T19:44:53.078Z,100.00
2023-05-01T19:47:22.804Z,100.00
2023-05-01T19:49:51.105Z,100.00
2023-05-01T19:52:19.590Z,100.00
2023-05-01T19:54:47.892Z,100.00
2023-05-01T19:57:16.495Z,100.00
2023-05-01T19:59:44.970Z,100.00
2023-05-01T20:02:13.279Z,100.00
2023-05-01T20:04:42.974Z,100.00
2023-05-01T20:07:11.331Z,100.00
2023-05-01T20:09:39.645Z,100.00
2023-05-01T20:12:07.945Z,100.00
2023-05-01T20:14:36.282Z,100.00
2023-05-01T20:17:06.263Z,100.00
2023-05-01T20:19:34.676Z,100.00
2023-05-01T20:22:04.319Z,100.00
2023-05-01T20:24:32.600Z,100.00
2023-05-01T20:27:01.113Z,100.00
2023-05-01T20:29:29.323Z,100.00
2023-05-01T20:31:57.640Z,100.00
2023-05-01T20:34:26.183Z,100.00
2023-05-01T20:36:54.523Z,100.00
2023-05-01T20:39:24.247Z,100.00
2023-05-01T20:41:52.710Z,100.00
2023-05-01T20:44:20.927Z,100.00
2023-05-01T20:46:49.241Z,100.00
2023-05-01T20:49:17.520Z,100.00
2023-05-01T20:51:45.713Z,100.00
2023-05-01T20:54:14.007Z,100.00
2023-05-01T20:56:43.668Z,100.00
2023-05-01T20:59:12.031Z,100.00
2023-05-01T21:01:40.371Z,100.00
2023-05-01T21:04:08.767Z,100.00
2023-05-01T21:06:37.152Z,100.00
2023-05-01T21:09:06.248Z,100.00
2023-05-01T21:11:34.507Z,100.00
2023-05-01T21:14:04.109Z,100.00
2023-05-01T21:16:32.646Z,100.00
2023-05-01T21:19:01.008Z,100.00
2023-05-01T21:21:29.281Z,100.00
2023-05-01T21:23:57.560Z,100.00
2023-05-01T21:26:26.074Z,100.00
2023-05-01T21:28:54.277Z,100.00
2023-05-01T21:31:27.261Z,100.00
2023-05-01T21:33:58.117Z,100.00
2023-05-01T21:36:26.403Z,100.00
2023-05-01T21:38:54.978Z,100.00
2023-05-01T21:41:23.390Z,100.00
2023-05-01T21:43:51.664Z,100.00
2023-05-01T21:46:20.543Z,100.00
2023-05-01T21:48:52.488Z,100.00
2023-05-01T21:51:26.933Z,100.00
2023-05-01T21:53:55.399Z,100.00
2023-05-01T21:56:23.746Z,100.00
2023-05-01T21:58:52.256Z,100.00
2023-05-01T22:01:23.503Z,100.00
2023-05-01T22:03:53.261Z,100.00
2023-05-01T22:06:24.232Z,100.00
2023-05-01T22:08:53.008Z,100.00
2023-05-01T22:11:24.472Z,100.00
2023-05-01T22:13:52.810Z,100.00
2023-05-01T22:16:21.066Z,100.00
2023-05-01T22:18:53.810Z,100.00
2023-05-01T22:21:23.947Z,100.00
2023-05-01T22:23:52.250Z,100.00
2023-05-01T22:26:20.490Z,100.00
2023-05-01T22:28:49.785Z,100.00
2023-05-01T22:31:18.169Z,100.00
2023-05-01T22:33:46.467Z,100.00
2023-05-01T22:36:14.906Z,100.00
2023-05-01T22:38:44.542Z,100.00
2023-05-01T22:41:12.856Z,100.00
2023-05-01T22:43:41.150Z,100.00
2023-05-01T22:46:09.404Z,100.00
2023-05-01T22:48:37.717Z,100.00
2023-05-01T22:51:06.638Z,100.00
2023-05-01T22:53:34.995Z,100.00
2023-05-01T22:56:04.975Z,100.00
2023-05-01T22:58:33.328Z,100.00
2023-05-01T23:01:01.805Z,100.00
2023-05-01T23:03:31.418Z,100.00
2023-05-01T23:05:59.701Z,100.00
2023-05-01T23:08:28.313Z,100.00
2023-05-01T23:10:56.671Z,100.00
2023-05-01T23:13:27.363Z,100.00
2023-05-01T23:15:55.728Z,100.00
2023-05-01T23:18:25.620Z,100.00
2023-05-01T23:20:55.567Z,100.00
2023-05-01T23:23:24.079Z,100.00
2023-05-01T23:25:52.894Z,100.00
2023-05-01T23:28:22.118Z,100.00
2023-05-01T23:30:56.512Z,100.00
2023-05-01T23:33:26.453Z,100.00
2023-05-01T23:35:54.726Z,100.00
2023-05-01T23:38:23.278Z,100.00
2023-05-01T23:40:51.684Z,100.00
2023-05-01T23:43:20.032Z,100.00
2023-05-01T23:45:48.284Z,100.00
2023-05-01T23:48:17.860Z,100.00
2023-05-01T23:50:46.358Z,100.00
2023-05-01T23:53:14.573Z,100.00
2023-05-01T23:55:45.265Z,100.00
2023-05-01T23:58:14.853Z,100.00
